createdAt,value
2018-06-03T00:01:58.130Z,5.07
2018-06-03T00:04:26.603Z,5.43
2018-06-03T00:06:55.068Z,5.70
2018-06-03T00:09:23.523Z,6.20
2018-06-03T00:11:51.976Z,5.10
2018-06-03T00:14:20.467Z,5.40
2018-06-03T00:16:48.939Z,5.13
2018-06-03T00:19:17.622Z,5.40
2018-06-03T00:21:51.374Z,5.40
2018-06-03T00:24:19.820Z,5.40
2018-06-03T00:26:48.371Z,5.10
2018-06-03T00:29:17.038Z,5.83
2018-06-03T00:31:45.486Z,5.20
2018-06-03T00:34:13.960Z,4.40
2018-06-03T00:36:46.638Z,5.13
2018-06-03T00:39:15.130Z,5.50
2018-06-03T00:41:43.583Z,5.67
2018-06-03T00:44:12.043Z,4.60
2018-06-03T00:46:40.503Z,5.07
2018-06-03T00:49:08.962Z,5.70
2018-06-03T00:51:37.406Z,5.60
2018-06-03T00:54:05.834Z,5.47
2018-06-03T00:57:13.893Z,4.63
2018-06-03T00:59:42.381Z,5.60
2018-06-03T01:02:10.856Z,5.67
2018-06-03T01:04:39.329Z,5.70
2018-06-03T01:07:07.786Z,4.53
2018-06-03T01:09:36.256Z,5.20
2018-06-03T01:12:04.699Z,5.00
2018-06-03T01:14:33.167Z,5.67
2018-06-03T01:17:01.597Z,5.37
2018-06-03T01:19:32.106Z,5.30
2018-06-03T01:22:00.249Z,5.77
2018-06-03T01:24:28.739Z,5.00
2018-06-03T01:26:57.189Z,5.40
2018-06-03T01:29:25.707Z,4.53
2018-06-03T01:31:54.192Z,5.07
2018-06-03T01:34:22.667Z,5.03
2018-06-03T01:36:51.318Z,5.50
2018-06-03T01:39:19.786Z,5.07
2018-06-03T01:41:48.238Z,5.00
2018-06-03T01:44:16.621Z,5.07
2018-06-03T01:46:45.052Z,5.10
2018-06-03T01:49:13.542Z,5.40
2018-06-03T01:51:42.003Z,5.50
2018-06-03T01:54:10.531Z,5.67
2018-06-03T01:56:39.002Z,5.17
2018-06-03T01:59:07.495Z,5.60
2018-06-03T02:01:35.992Z,5.47
2018-06-03T02:04:04.122Z,5.60
2018-06-03T02:06:32.547Z,5.37
2018-06-03T02:09:00.718Z,5.30
2018-06-03T02:11:28.825Z,5.30
2018-06-03T02:13:57.289Z,5.77
2018-06-03T02:16:25.770Z,5.80
2018-06-03T02:18:54.458Z,5.47
2018-06-03T02:21:22.895Z,5.30
2018-06-03T02:23:51.334Z,5.33
2018-06-03T02:26:19.782Z,5.80
2018-06-03T02:28:48.226Z,5.70
2018-06-03T02:31:16.669Z,5.20
2018-06-03T02:33:45.090Z,5.97
2018-06-03T02:36:13.604Z,6.33
2018-06-03T02:38:42.081Z,5.67
2018-06-03T02:41:10.504Z,6.10
2018-06-03T02:43:38.958Z,5.60
2018-06-03T02:46:07.455Z,5.90
2018-06-03T02:48:35.911Z,5.80
2018-06-03T02:51:04.393Z,5.60
2018-06-03T02:53:32.826Z,6.83
2018-06-03T02:56:01.319Z,6.07
2018-06-03T02:58:29.757Z,5.80
2018-06-03T03:00:57.938Z,6.83
2018-06-03T03:03:27.282Z,6.30
2018-06-03T03:05:55.714Z,6.47
2018-06-03T03:08:24.193Z,6.20
2018-06-03T03:10:52.336Z,6.30
2018-06-03T03:13:20.822Z,6.20
2018-06-03T03:15:49.320Z,6.20
2018-06-03T03:18:17.484Z,6.00
2018-06-03T03:20:45.939Z,5.97
2018-06-03T03:23:14.394Z,6.10
2018-06-03T03:25:42.862Z,6.70
2018-06-03T03:28:11.594Z,6.40
2018-06-03T03:30:40.048Z,6.03
2018-06-03T03:33:08.543Z,5.80
2018-06-03T03:35:37.274Z,5.60
2018-06-03T03:38:05.751Z,6.03
2018-06-03T03:40:34.526Z,6.23
2018-06-03T03:43:02.988Z,6.70
2018-06-03T03:45:31.470Z,6.27
2018-06-03T03:47:59.985Z,6.10
2018-06-03T03:50:28.534Z,6.30
2018-06-03T03:52:56.985Z,5.90
2018-06-03T03:55:25.662Z,5.73
2018-06-03T03:57:54.141Z,6.33
2018-06-03T04:00:22.792Z,6.50
2018-06-03T04:02:51.498Z,5.80
2018-06-03T04:05:20.001Z,5.50
2018-06-03T04:07:48.172Z,6.60
2018-06-03T04:10:16.621Z,6.40
2018-06-03T04:12:45.074Z,6.67
2018-06-03T04:15:13.581Z,5.60
2018-06-03T04:17:42.089Z,6.37
2018-06-03T04:20:10.241Z,6.20
2018-06-03T04:22:38.721Z,5.43
2018-06-03T04:25:07.189Z,5.80
2018-06-03T04:27:35.661Z,4.80
2018-06-03T04:30:04.161Z,4.90
2018-06-03T04:32:32.699Z,5.30
2018-06-03T04:35:00.829Z,5.00
2018-06-03T04:37:29.295Z,5.57
2018-06-03T04:39:57.742Z,5.10
2018-06-03T04:42:26.185Z,6.00
2018-06-03T04:44:54.641Z,5.50
2018-06-03T04:47:23.339Z,6.70
2018-06-03T04:49:52.018Z,6.17
2018-06-03T04:52:20.494Z,6.10
2018-06-03T04:54:48.941Z,6.10
2018-06-03T04:57:17.398Z,6.17
2018-06-03T04:59:45.898Z,5.60
2018-06-03T05:02:14.350Z,6.07
2018-06-03T05:04:42.813Z,6.17
2018-06-03T05:07:11.285Z,5.90
2018-06-03T05:09:39.733Z,5.70
2018-06-03T05:12:08.469Z,5.90
2018-06-03T05:14:36.950Z,5.50
2018-06-03T05:17:05.533Z,5.70
2018-06-03T05:19:33.974Z,5.00
2018-06-03T05:22:02.444Z,6.17
2018-06-03T05:24:31.138Z,6.03
2018-06-03T05:26:59.257Z,5.13
2018-06-03T05:29:27.753Z,6.30
2018-06-03T05:31:56.198Z,5.83
2018-06-03T05:34:24.684Z,4.93
2018-06-03T05:36:53.125Z,6.33
2018-06-03T05:39:21.719Z,5.87
2018-06-03T05:41:49.873Z,6.17
2018-06-03T05:44:18.377Z,5.80
2018-06-03T05:46:46.586Z,5.57
2018-06-03T05:49:15.073Z,6.20
2018-06-03T05:51:43.591Z,5.77
2018-06-03T05:54:12.063Z,5.70
2018-06-03T05:56:40.520Z,5.70
2018-06-03T05:59:09.005Z,5.43
2018-06-03T06:01:37.489Z,5.93
2018-06-03T06:04:06.006Z,5.67
2018-06-03T06:06:34.570Z,5.53
2018-06-03T06:09:03.126Z,5.83
2018-06-03T06:11:32.131Z,5.00
2018-06-03T06:14:00.581Z,5.90
2018-06-03T06:16:29.077Z,5.93
2018-06-03T06:18:57.541Z,5.83
2018-06-03T06:21:26.008Z,6.17
2018-06-03T06:23:54.160Z,6.83
2018-06-03T06:26:22.577Z,6.07
2018-06-03T06:28:51.026Z,5.93
2018-06-03T06:31:19.498Z,6.30
2018-06-03T06:33:47.981Z,6.80
2018-06-03T06:36:16.446Z,6.80
2018-06-03T06:38:44.918Z,6.20
2018-06-03T06:41:13.821Z,6.17
2018-06-03T06:43:42.315Z,6.53
2018-06-03T06:46:10.797Z,6.87
2018-06-03T06:48:39.247Z,6.57
2018-06-03T06:51:07.710Z,6.10
2018-06-03T06:53:35.881Z,6.50
2018-06-03T06:56:04.341Z,6.27
2018-06-03T06:58:32.859Z,6.80
2018-06-03T07:01:01.563Z,6.50
2018-06-03T07:03:30.063Z,6.90
2018-06-03T07:05:58.527Z,6.67
2018-06-03T07:08:26.987Z,6.50
2018-06-03T07:10:55.447Z,6.63
2018-06-03T07:13:23.871Z,6.23
2018-06-03T07:15:52.899Z,6.40
2018-06-03T07:18:21.064Z,6.10
2018-06-03T07:20:49.754Z,6.33
2018-06-03T07:23:18.216Z,5.97
2018-06-03T07:25:46.915Z,5.60
2018-06-03T07:28:15.401Z,6.23
2018-06-03T07:30:43.547Z,5.63
2018-06-03T07:33:12.070Z,5.60
2018-06-03T07:35:40.547Z,5.47
2018-06-03T07:38:09.058Z,6.30
2018-06-03T07:40:37.592Z,5.20
2018-06-03T07:43:06.172Z,5.53
2018-06-03T07:45:34.746Z,5.70
2018-06-03T07:48:03.270Z,6.57
2018-06-03T07:50:31.779Z,6.30
2018-06-03T07:53:00.295Z,6.43
2018-06-03T07:55:28.783Z,5.60
2018-06-03T07:57:57.294Z,6.30
2018-06-03T08:00:26.211Z,6.50
2018-06-03T08:02:54.712Z,6.23
2018-06-03T08:05:23.194Z,5.70
2018-06-03T08:07:51.715Z,6.77
2018-06-03T08:10:20.250Z,5.73
2018-06-03T08:12:48.397Z,5.30
2018-06-03T08:15:16.965Z,6.20
2018-06-03T08:17:45.632Z,5.93
2018-06-03T08:20:14.121Z,7.00
2018-06-03T08:22:42.636Z,7.00
2018-06-03T08:25:11.129Z,6.27
2018-06-03T08:27:39.666Z,6.27
2018-06-03T08:30:08.152Z,5.83
2018-06-03T08:32:36.633Z,6.40
2018-06-03T08:35:05.111Z,5.60
2018-06-03T08:37:33.577Z,6.07
2018-06-03T08:40:02.321Z,6.00
2018-06-03T08:42:30.859Z,5.60
2018-06-03T08:44:59.382Z,6.00
2018-06-03T08:47:27.834Z,5.67
2018-06-03T08:49:56.311Z,4.40
2018-06-03T08:52:24.853Z,4.17
2018-06-03T08:54:53.326Z,5.53
2018-06-03T08:57:21.824Z,5.47
2018-06-03T08:59:50.321Z,5.97
2018-06-03T09:02:19.076Z,5.23
2018-06-03T09:04:47.596Z,5.27
2018-06-03T09:07:16.246Z,5.60
2018-06-03T09:09:44.738Z,5.37
2018-06-03T09:12:13.218Z,5.93
2018-06-03T09:14:41.714Z,6.30
2018-06-03T09:17:10.198Z,5.60
2018-06-03T09:19:38.889Z,5.90
2018-06-03T09:22:07.444Z,5.67
2018-06-03T09:24:35.898Z,5.47
2018-06-03T09:27:04.415Z,5.97
2018-06-03T09:29:32.871Z,5.33
2018-06-03T09:32:01.361Z,5.60
2018-06-03T09:34:29.833Z,5.70
2018-06-03T09:36:58.302Z,4.90
2018-06-03T09:39:26.778Z,5.77
2018-06-03T09:41:55.215Z,5.80
2018-06-03T09:46:49.354Z,5.40
2018-06-03T09:49:17.806Z,5.93
2018-06-03T09:51:46.294Z,6.00
2018-06-03T09:54:14.766Z,5.20
2018-06-03T09:56:43.254Z,4.97
2018-06-03T09:59:11.746Z,4.73
2018-06-03T10:01:40.294Z,5.20
2018-06-03T10:04:08.803Z,5.30
2018-06-03T10:06:37.378Z,4.77
2018-06-03T10:09:07.209Z,4.80
2018-06-03T10:11:35.826Z,4.30
2018-06-03T10:14:04.331Z,4.93
2018-06-03T10:16:33.061Z,5.40
2018-06-03T10:19:01.704Z,5.50
2018-06-03T10:21:30.786Z,5.93
2018-06-03T10:23:59.319Z,5.73
2018-06-03T10:26:27.908Z,6.50
2018-06-03T10:28:56.675Z,5.60
2018-06-03T10:31:27.163Z,5.53
2018-06-03T10:33:55.788Z,6.00
2018-06-03T10:36:24.412Z,5.60
2018-06-03T10:38:53.056Z,5.37
2018-06-03T10:41:23.498Z,4.87
2018-06-03T10:43:52.207Z,5.33
2018-06-03T10:46:20.713Z,5.20
2018-06-03T10:48:49.200Z,4.90
2018-06-03T10:51:17.653Z,5.70
2018-06-03T10:53:46.155Z,5.77
2018-06-03T10:56:14.585Z,5.50
2018-06-03T10:58:43.061Z,5.77
2018-06-03T11:01:11.566Z,5.20
2018-06-03T11:03:39.709Z,5.30
2018-06-03T11:06:08.330Z,4.73
2018-06-03T11:08:36.802Z,5.57
2018-06-03T11:11:06.070Z,5.23
2018-06-03T11:13:35.160Z,5.00
2018-06-03T11:16:03.979Z,4.53
2018-06-03T11:18:32.478Z,5.30
2018-06-03T11:21:01.020Z,4.87
2018-06-03T11:23:29.489Z,4.57
2018-06-03T11:25:57.958Z,4.27
2018-06-03T11:28:26.450Z,5.23
2018-06-03T11:30:54.986Z,4.63
2018-06-03T11:33:23.132Z,5.27
2018-06-03T11:35:51.568Z,4.60
2018-06-03T11:38:20.345Z,4.00
2018-06-03T11:40:48.961Z,4.97
2018-06-03T11:43:17.424Z,4.80
2018-06-03T11:45:45.922Z,4.40
2018-06-03T11:48:14.390Z,3.80
2018-06-03T11:50:42.942Z,5.03
2018-06-03T11:53:11.434Z,4.40
2018-06-03T11:55:39.977Z,4.70
2018-06-03T11:58:45.014Z,3.63
2018-06-03T12:01:13.533Z,4.43
2018-06-03T12:03:41.986Z,4.10
2018-06-03T12:06:10.513Z,4.70
2018-06-03T12:08:39.003Z,4.20
2018-06-03T12:11:07.491Z,4.20
2018-06-03T12:13:36.011Z,5.00
2018-06-03T12:16:04.533Z,4.20
2018-06-03T12:18:32.702Z,4.20
2018-06-03T12:21:01.274Z,4.40
2018-06-03T12:23:29.789Z,4.07
2018-06-03T12:25:58.287Z,4.50
2018-06-03T12:28:26.885Z,5.13
2018-06-03T12:30:55.275Z,4.03
2018-06-03T12:33:23.774Z,4.70
2018-06-03T12:35:52.295Z,3.63
2018-06-03T12:38:20.806Z,4.73
2018-06-03T12:40:49.454Z,4.00
2018-06-03T12:43:17.587Z,4.67
2018-06-03T12:45:46.106Z,4.90
2018-06-03T12:48:14.846Z,4.43
2018-06-03T12:50:44.581Z,4.50
2018-06-03T12:53:13.332Z,4.43
2018-06-03T12:55:41.816Z,4.43
2018-06-03T12:58:10.279Z,4.97
2018-06-03T13:00:38.824Z,4.23
2018-06-03T13:03:07.377Z,4.93
2018-06-03T13:05:36.061Z,4.10
2018-06-03T13:08:04.585Z,4.10
2018-06-03T13:10:33.122Z,4.27
2018-06-03T13:13:01.682Z,4.30
2018-06-03T13:15:30.192Z,3.83
2018-06-03T13:17:58.806Z,5.00
2018-06-03T13:20:27.537Z,3.90
2018-06-03T13:22:56.034Z,4.80
2018-06-03T13:25:24.786Z,4.13
2018-06-03T13:27:53.303Z,4.43
2018-06-03T13:30:21.791Z,4.50
2018-06-03T13:32:50.303Z,4.13
2018-06-03T13:35:18.778Z,4.40
2018-06-03T13:37:47.252Z,4.60
2018-06-03T13:40:15.760Z,4.07
2018-06-03T13:42:44.209Z,4.67
2018-06-03T13:45:12.695Z,4.90
2018-06-03T13:47:41.195Z,4.37
2018-06-03T13:50:10.219Z,3.63
2018-06-03T13:52:38.430Z,4.50
2018-06-03T13:55:06.938Z,3.70
2018-06-03T13:57:35.453Z,4.03
2018-06-03T14:00:04.199Z,3.40
2018-06-03T14:02:32.900Z,3.93
2018-06-03T14:05:01.602Z,4.10
2018-06-03T14:07:30.195Z,4.00
2018-06-03T14:09:58.454Z,4.10
2018-06-03T14:12:26.993Z,3.50
2018-06-03T14:14:55.554Z,3.53
2018-06-03T14:17:24.038Z,4.40
2018-06-03T14:19:52.441Z,4.00
2018-06-03T14:22:20.909Z,3.83
2018-06-03T14:24:49.374Z,4.23
2018-06-03T14:27:17.822Z,4.80
2018-06-03T14:29:46.365Z,4.07
2018-06-03T14:32:14.642Z,3.87
2018-06-03T14:34:43.380Z,3.73
2018-06-03T14:37:11.873Z,3.60
2018-06-03T14:39:41.675Z,3.77
2018-06-03T14:42:10.266Z,4.40
2018-06-03T14:44:38.798Z,3.90
2018-06-03T14:47:07.394Z,3.23
2018-06-03T14:49:35.987Z,3.90
2018-06-03T14:52:04.566Z,3.93
2018-06-03T14:54:33.127Z,3.27
2018-06-03T14:57:01.736Z,3.80
2018-06-03T14:59:30.263Z,3.00
2018-06-03T15:01:59.043Z,4.17
2018-06-03T15:04:27.777Z,4.50
2018-06-03T15:06:56.268Z,4.63
2018-06-03T15:09:24.759Z,4.30
2018-06-03T15:11:53.229Z,4.03
2018-06-03T15:14:21.719Z,4.30
2018-06-03T15:16:50.164Z,3.60
2018-06-03T15:19:18.868Z,3.80
2018-06-03T15:21:47.404Z,4.50
2018-06-03T15:24:15.894Z,3.97
2018-06-03T15:26:44.442Z,4.77
2018-06-03T15:29:13.659Z,4.63
2018-06-03T15:31:42.572Z,3.60
2018-06-03T15:34:11.142Z,3.93
2018-06-03T15:36:39.643Z,3.70
2018-06-03T15:39:09.031Z,4.03
2018-06-03T15:41:37.541Z,3.50
2018-06-03T15:44:06.110Z,3.73
2018-06-03T15:46:34.414Z,3.83
2018-06-03T15:49:02.911Z,3.83
2018-06-03T15:51:31.411Z,3.77
2018-06-03T15:53:59.849Z,4.13
2018-06-03T15:56:28.413Z,4.10
2018-06-03T15:58:56.884Z,3.70
2018-06-03T16:01:25.631Z,3.37
2018-06-03T16:03:54.128Z,4.33
2018-06-03T16:06:22.267Z,3.43
2018-06-03T16:08:50.790Z,3.80
2018-06-03T16:11:19.258Z,3.57
2018-06-03T16:13:47.753Z,3.83
2018-06-03T16:16:15.928Z,4.10
2018-06-03T16:18:44.340Z,4.20
2018-06-03T16:21:12.806Z,4.00
2018-06-03T16:23:41.366Z,4.20
2018-06-03T16:26:09.898Z,3.80
2018-06-03T16:28:38.383Z,3.50
2018-06-03T16:31:06.869Z,3.60
2018-06-03T16:33:35.317Z,3.67
2018-06-03T16:36:03.800Z,4.00
2018-06-03T16:38:32.290Z,3.70
2018-06-03T16:41:00.797Z,3.80
2018-06-03T16:43:29.307Z,3.57
2018-06-03T16:45:57.789Z,3.50
2018-06-03T16:48:26.247Z,3.27
2018-06-03T16:50:54.737Z,3.10
2018-06-03T16:53:23.235Z,3.70
2018-06-03T16:55:51.434Z,4.03
2018-06-03T16:58:19.974Z,3.30
2018-06-03T17:00:49.059Z,3.27
2018-06-03T17:03:17.540Z,3.63
2018-06-03T17:05:46.067Z,3.60
2018-06-03T17:08:14.601Z,3.40
2018-06-03T17:10:43.069Z,3.83
2018-06-03T17:13:11.826Z,3.60
2018-06-03T17:15:40.280Z,3.60
2018-06-03T17:18:09.829Z,3.93
2018-06-03T17:20:38.395Z,4.00
2018-06-03T17:23:07.009Z,4.00
2018-06-03T17:25:35.510Z,4.00
2018-06-03T17:28:03.985Z,3.90
2018-06-03T17:30:32.445Z,4.53
2018-06-03T17:33:00.930Z,4.83
2018-06-03T17:35:29.434Z,4.30
2018-06-03T17:37:57.913Z,3.73
2018-06-03T17:40:26.677Z,4.07
2018-06-03T17:42:55.137Z,4.47
2018-06-03T17:45:23.646Z,4.50
2018-06-03T17:47:52.116Z,4.50
2018-06-03T17:50:20.631Z,4.17
2018-06-03T17:52:49.902Z,4.27
2018-06-03T17:55:18.423Z,4.03
2018-06-03T17:57:46.902Z,4.40
2018-06-03T18:00:15.444Z,4.33
2018-06-03T18:02:43.954Z,4.30
2018-06-03T18:05:12.454Z,4.60
2018-06-03T18:07:41.007Z,4.00
2018-06-03T18:10:09.684Z,4.70
2018-06-03T18:12:38.168Z,4.20
2018-06-03T18:15:06.687Z,4.60
2018-06-03T18:17:35.242Z,4.00
2018-06-03T18:20:03.851Z,4.20
2018-06-03T18:22:32.648Z,4.50
2018-06-03T18:25:01.119Z,4.90
2018-06-03T18:27:30.082Z,4.57
2018-06-03T18:30:02.436Z,4.00
2018-06-03T18:32:30.595Z,4.63
2018-06-03T18:34:59.120Z,4.20
2018-06-03T18:37:28.616Z,3.83
2018-06-03T18:39:57.113Z,3.80
2018-06-03T18:42:25.668Z,4.23
2018-06-03T18:44:54.167Z,4.47
2018-06-03T18:47:22.655Z,5.10
2018-06-03T18:49:51.144Z,4.00
2018-06-03T18:52:19.652Z,4.10
2018-06-03T18:54:48.160Z,4.33
2018-06-03T18:57:17.128Z,4.17
2018-06-03T18:59:45.858Z,3.70
2018-06-03T19:02:14.418Z,3.90
2018-06-03T19:04:42.981Z,4.60
2018-06-03T19:07:11.505Z,4.23
2018-06-03T19:09:39.670Z,4.33
2018-06-03T19:12:08.173Z,4.00
2018-06-03T19:14:36.765Z,4.70
2018-06-03T19:17:05.306Z,3.63
2018-06-03T19:19:34.379Z,4.40
2018-06-03T19:22:02.870Z,5.07
2018-06-03T19:24:31.392Z,4.70
2018-06-03T19:26:59.945Z,4.53
2018-06-03T19:29:28.446Z,4.47
2018-06-03T19:31:56.956Z,4.60
2018-06-03T19:34:25.463Z,4.30
2018-06-03T19:36:53.998Z,4.47
2018-06-03T19:39:22.553Z,4.60
2018-06-03T19:41:51.120Z,5.03
2018-06-03T19:44:19.638Z,4.60
2018-06-03T19:46:48.096Z,4.30
2018-06-03T19:49:16.616Z,4.80
2018-06-03T19:51:45.117Z,4.80
2018-06-03T19:54:13.593Z,5.70
2018-06-03T19:56:42.102Z,4.57
2018-06-03T19:59:10.566Z,4.90
2018-06-03T20:01:38.745Z,5.10
2018-06-03T20:04:07.109Z,5.30
2018-06-03T20:06:35.607Z,5.50
2018-06-03T20:09:05.904Z,4.60
2018-06-03T20:11:34.409Z,4.57
2018-06-03T20:14:02.910Z,4.40
2018-06-03T20:16:31.606Z,4.40
2018-06-03T20:19:00.072Z,4.90
2018-06-03T20:21:28.571Z,4.30
2018-06-03T20:23:57.063Z,4.57
2018-06-03T20:26:25.565Z,4.43
2018-06-03T20:28:54.047Z,4.00
2018-06-03T20:31:22.545Z,4.20
2018-06-03T20:33:51.295Z,4.90
2018-06-03T20:36:20.015Z,4.13
2018-06-03T20:38:48.727Z,4.40
2018-06-03T20:41:17.941Z,4.40
2018-06-03T20:43:46.439Z,4.30
2018-06-03T20:46:14.983Z,4.13
2018-06-03T20:48:43.450Z,5.27
2018-06-03T20:51:11.946Z,5.00
2018-06-03T20:53:40.425Z,4.87
2018-06-03T20:56:08.942Z,5.00
2018-06-03T20:58:37.464Z,4.40
2018-06-03T21:01:06.017Z,4.37
2018-06-03T21:03:34.510Z,4.70
2018-06-03T21:06:02.997Z,4.43
2018-06-03T21:08:31.498Z,4.50
2018-06-03T21:11:00.000Z,4.17
2018-06-03T21:13:28.192Z,5.33
2018-06-03T21:15:56.683Z,3.97
2018-06-03T21:18:25.357Z,4.93
2018-06-03T21:20:53.557Z,5.20
2018-06-03T21:23:22.034Z,4.80
2018-06-03T21:25:50.570Z,4.60
2018-06-03T21:28:19.064Z,4.80
2018-06-03T21:30:47.594Z,4.57
2018-06-03T21:33:16.283Z,4.73
2018-06-03T21:35:44.798Z,4.53
2018-06-03T21:38:13.310Z,4.80
2018-06-03T21:40:41.491Z,4.43
2018-06-03T21:43:10.285Z,4.87
2018-06-03T21:45:38.792Z,4.30
2018-06-03T21:48:07.260Z,5.00
2018-06-03T21:50:35.762Z,4.80
2018-06-03T21:53:04.252Z,5.10
2018-06-03T21:55:32.747Z,4.33
2018-06-03T21:58:01.227Z,4.40
2018-06-03T22:00:29.736Z,4.40
2018-06-03T22:02:58.239Z,4.80
2018-06-03T22:05:26.758Z,4.97
2018-06-03T22:07:55.277Z,4.40
2018-06-03T22:10:23.805Z,4.70
2018-06-03T22:12:52.322Z,4.73
2018-06-03T22:15:20.794Z,5.50
2018-06-03T22:17:49.310Z,4.73
2018-06-03T22:20:17.828Z,5.40
2018-06-03T22:22:46.310Z,5.23
2018-06-03T22:25:14.819Z,5.80
2018-06-03T22:27:43.303Z,5.30
2018-06-03T22:30:12.138Z,5.97
2018-06-03T22:32:40.620Z,6.47
2018-06-03T22:35:09.088Z,5.83
2018-06-03T22:37:37.566Z,5.57
2018-06-03T22:40:06.104Z,6.77
2018-06-03T22:42:34.583Z,5.90
2018-06-03T22:45:03.051Z,4.83
2018-06-03T22:47:31.874Z,6.00
2018-06-03T22:50:00.372Z,5.37
2018-06-03T22:52:28.815Z,4.53
2018-06-03T22:54:57.308Z,4.83
2018-06-03T22:57:46.027Z,4.97
2018-06-03T23:00:23.214Z,5.80
2018-06-03T23:02:57.188Z,5.43
2018-06-03T23:05:25.700Z,5.50
2018-06-03T23:07:54.212Z,5.60
2018-06-03T23:10:22.410Z,4.93
2018-06-03T23:12:50.892Z,5.53
2018-06-03T23:15:19.407Z,5.53
2018-06-03T23:17:47.917Z,5.37
2018-06-03T23:20:16.394Z,5.83
2018-06-03T23:22:44.875Z,5.70
2018-06-03T23:25:13.387Z,4.77
2018-06-03T23:27:41.879Z,5.40
2018-06-03T23:30:10.378Z,5.53
2018-06-03T23:32:38.864Z,6.00
2018-06-03T23:35:07.327Z,5.87
2018-06-03T23:37:35.470Z,5.60
2018-06-03T23:40:04.074Z,5.00
2018-06-03T23:42:32.202Z,6.00
2018-06-03T23:45:00.706Z,5.63
2018-06-03T23:47:29.168Z,5.07
2018-06-03T23:49:59.654Z,6.53
2018-06-03T23:52:28.155Z,5.47
2018-06-03T23:54:56.619Z,5.87
2018-06-03T23:57:25.094Z,6.37
2018-06-03T23:59:53.233Z,5.87
